createdAt,value
2023-05-15T00:01:32.319Z,10.80
2023-05-15T00:03:59.072Z,10.70
2023-05-15T00:06:26.578Z,10.70
2023-05-15T00:08:53.476Z,10.70
2023-05-15T00:11:23.469Z,10.70
2023-05-15T00:13:51.007Z,10.60
2023-05-15T00:16:17.874Z,10.60
2023-05-15T00:18:44.786Z,10.50
2023-05-15T00:21:11.780Z,10.40
2023-05-15T00:23:38.580Z,10.40
2023-05-15T00:26:05.499Z,10.40
2023-05-15T00:28:32.306Z,10.40
2023-05-15T00:30:59.122Z,10.40
2023-05-15T00:33:25.931Z,10.40
2023-05-15T00:35:52.663Z,10.30
2023-05-15T00:38:19.469Z,10.30
2023-05-15T00:40:46.583Z,10.20
2023-05-15T00:43:15.037Z,10.10
2023-05-15T00:45:42.728Z,9.90
2023-05-15T00:48:12.785Z,10.10
2023-05-15T00:50:41.555Z,10.20
2023-05-15T00:53:08.551Z,10.30
2023-05-15T00:55:36.156Z,10.10
2023-05-15T00:58:03.671Z,10.20
2023-05-15T01:00:33.122Z,10.50
2023-05-15T01:03:00.445Z,10.40
2023-05-15T01:05:27.644Z,10.30
2023-05-15T01:08:05.904Z,10.20
2023-05-15T01:10:34.921Z,10.30
2023-05-15T01:13:03.456Z,10.30
2023-05-15T01:15:30.305Z,10.30
2023-05-15T01:17:57.096Z,10.40
2023-05-15T01:20:24.662Z,10.50
2023-05-15T01:23:06.235Z,10.50
2023-05-15T01:26:04.764Z,10.30
2023-05-15T01:28:37.591Z,10.30
2023-05-15T01:31:14.573Z,10.30
2023-05-15T01:33:45.830Z,10.30
2023-05-15T01:36:24.351Z,10.30
2023-05-15T01:38:55.751Z,10.30
2023-05-15T01:41:52.626Z,10.30
2023-05-15T01:44:31.203Z,10.20
2023-05-15T01:47:10.447Z,10.20
2023-05-15T01:49:38.881Z,10.30
2023-05-15T01:52:18.920Z,10.30
2023-05-15T01:54:47.531Z,10.20
2023-05-15T01:57:15.378Z,10.20
2023-05-15T01:59:43.589Z,10.10
2023-05-15T02:02:11.175Z,10.30
2023-05-15T02:04:38.936Z,10.30
2023-05-15T02:07:06.685Z,10.20
2023-05-15T02:09:33.702Z,10.20
2023-05-15T02:12:02.035Z,10.20
2023-05-15T02:14:30.557Z,10.20
2023-05-15T02:16:57.354Z,10.20
2023-05-15T02:19:24.691Z,10.20
2023-05-15T02:21:51.435Z,10.20
2023-05-15T02:24:18.250Z,10.10
2023-05-15T02:27:00.794Z,10.00
2023-05-15T02:29:51.713Z,10.00
2023-05-15T02:32:28.011Z,10.00
2023-05-15T02:35:31.162Z,10.10
2023-05-15T02:38:01.082Z,10.10
2023-05-15T02:40:30.247Z,10.00
2023-05-15T02:42:57.838Z,10.00
2023-05-15T02:45:26.116Z,10.00
2023-05-15T02:47:54.263Z,9.90
2023-05-15T02:50:21.293Z,9.90
2023-05-15T02:52:48.046Z,9.80
2023-05-15T02:55:14.808Z,9.80
2023-05-15T02:57:41.933Z,9.80
2023-05-15T03:00:11.812Z,10.00
2023-05-15T03:02:38.642Z,9.90
2023-05-15T03:05:06.658Z,9.90
2023-05-15T03:07:33.417Z,9.80
2023-05-15T03:10:00.213Z,9.60
2023-05-15T03:12:27.105Z,9.50
2023-05-15T03:14:53.826Z,9.50
2023-05-15T03:17:20.539Z,9.40
2023-05-15T03:19:47.304Z,9.50
2023-05-15T03:22:14.253Z,9.50
2023-05-15T03:24:41.057Z,9.60
2023-05-15T03:27:07.821Z,9.50
2023-05-15T03:29:34.524Z,9.40
2023-05-15T03:32:01.269Z,9.50
2023-05-15T03:34:28.320Z,9.60
2023-05-15T03:36:55.080Z,9.50
2023-05-15T03:39:21.801Z,9.40
2023-05-15T03:41:48.586Z,9.40
2023-05-15T03:44:15.313Z,9.50
2023-05-15T03:46:42.095Z,9.50
2023-05-15T03:49:08.982Z,9.60
2023-05-15T03:51:35.865Z,9.60
2023-05-15T03:54:05.187Z,9.60
2023-05-15T03:56:33.093Z,9.70
2023-05-15T03:58:59.874Z,9.70
2023-05-15T04:01:26.770Z,9.70
2023-05-15T04:03:53.662Z,9.70
2023-05-15T04:06:20.442Z,9.60
2023-05-15T04:08:47.139Z,9.90
2023-05-15T04:11:13.906Z,9.90
2023-05-15T04:13:40.634Z,9.80
2023-05-15T04:16:08.374Z,9.70
2023-05-15T04:18:35.340Z,9.80
2023-05-15T04:21:02.069Z,9.90
2023-05-15T04:23:28.811Z,9.70
2023-05-15T04:25:55.622Z,9.70
2023-05-15T04:28:22.454Z,9.50
2023-05-15T04:30:49.196Z,9.60
2023-05-15T04:33:16.030Z,9.70
2023-05-15T04:35:43.295Z,9.70
2023-05-15T04:38:10.134Z,9.90
2023-05-15T04:40:36.927Z,10.20
2023-05-15T04:43:04.100Z,10.30
2023-05-15T04:45:30.808Z,10.20
2023-05-15T04:47:57.682Z,10.00
2023-05-15T04:50:24.688Z,10.20
2023-05-15T04:52:51.895Z,10.30
2023-05-15T04:55:18.892Z,10.30
2023-05-15T04:57:47.222Z,10.00
2023-05-15T05:00:14.869Z,9.80
2023-05-15T05:02:43.558Z,9.70
2023-05-15T05:05:10.553Z,9.60
2023-05-15T05:07:37.341Z,9.50
2023-05-15T05:10:05.555Z,9.40
2023-05-15T05:12:32.358Z,9.40
2023-05-15T05:14:59.073Z,9.40
2023-05-15T05:17:25.914Z,9.50
2023-05-15T05:19:52.650Z,9.60
2023-05-15T05:22:19.402Z,9.70
2023-05-15T05:24:46.228Z,9.70
2023-05-15T05:27:13.024Z,9.90
2023-05-15T05:29:40.063Z,9.90
2023-05-15T05:32:07.742Z,9.90
2023-05-15T05:34:35.089Z,9.50
2023-05-15T05:37:02.053Z,9.30
2023-05-15T05:39:28.856Z,9.50
2023-05-15T05:41:55.850Z,9.60
2023-05-15T05:44:22.638Z,9.60
2023-05-15T05:46:49.640Z,9.70
2023-05-15T05:49:16.431Z,9.90
2023-05-15T05:51:45.211Z,10.20
2023-05-15T05:54:12.048Z,10.20
2023-05-15T05:56:38.808Z,10.20
2023-05-15T05:59:06.488Z,10.40
2023-05-15T06:01:33.383Z,10.70
2023-05-15T06:04:00.226Z,10.50
2023-05-15T06:06:27.024Z,10.40
2023-05-15T06:08:56.178Z,10.10
2023-05-15T06:11:25.405Z,10.00
2023-05-15T06:13:52.709Z,9.90
2023-05-15T06:16:19.537Z,10.00
2023-05-15T06:18:46.286Z,10.30
2023-05-15T06:21:13.047Z,10.40
2023-05-15T06:23:39.846Z,10.50
2023-05-15T06:26:06.674Z,10.70
2023-05-15T06:28:34.240Z,10.70
2023-05-15T06:31:01.268Z,10.80
2023-05-15T06:33:28.029Z,10.90
2023-05-15T06:35:54.997Z,10.70
2023-05-15T06:38:21.773Z,10.60
2023-05-15T06:40:48.493Z,10.50
2023-05-15T06:43:15.354Z,10.30
2023-05-15T06:45:42.141Z,10.30
2023-05-15T06:48:08.943Z,10.40
2023-05-15T06:50:36.016Z,10.40
2023-05-15T06:53:02.987Z,10.40
2023-05-15T06:55:29.797Z,10.30
2023-05-15T06:57:56.572Z,10.30
2023-05-15T07:00:23.337Z,10.50
2023-05-15T07:02:50.134Z,10.60
2023-05-15T07:05:17.035Z,10.80
2023-05-15T07:07:43.953Z,10.90
2023-05-15T07:10:11.407Z,11.20
2023-05-15T07:12:38.268Z,11.10
2023-05-15T07:15:05.844Z,11.00
2023-05-15T07:17:33.847Z,10.60
2023-05-15T07:20:00.674Z,10.60
2023-05-15T07:22:28.736Z,10.70
2023-05-15T07:24:55.467Z,11.00
2023-05-15T07:27:22.233Z,11.20
2023-05-15T07:29:49.025Z,11.20
2023-05-15T07:32:15.974Z,11.10
2023-05-15T07:34:42.839Z,11.10
2023-05-15T07:37:09.966Z,11.40
2023-05-15T07:39:36.795Z,11.20
2023-05-15T07:42:03.593Z,10.80
2023-05-15T07:44:30.360Z,10.90
2023-05-15T07:46:58.755Z,11.30
2023-05-15T07:49:25.503Z,11.70
2023-05-15T07:51:52.367Z,11.90
2023-05-15T07:54:19.098Z,12.00
2023-05-15T07:56:45.883Z,12.00
2023-05-15T07:59:12.672Z,12.10
2023-05-15T08:01:39.458Z,12.10
2023-05-15T08:04:09.045Z,12.10
2023-05-15T08:06:38.365Z,12.00
2023-05-15T08:09:05.330Z,11.60
2023-05-15T08:11:32.146Z,11.60
2023-05-15T08:13:59.021Z,11.80
2023-05-15T08:16:25.839Z,12.10
2023-05-15T08:18:55.761Z,12.00
2023-05-15T08:21:22.548Z,12.00
2023-05-15T08:23:49.239Z,11.90
2023-05-15T08:26:15.952Z,12.10
2023-05-15T08:28:42.708Z,12.20
2023-05-15T08:31:09.475Z,12.20
2023-05-15T08:33:36.218Z,12.40
2023-05-15T08:36:03.034Z,12.10
2023-05-15T08:38:29.858Z,12.00
2023-05-15T08:40:58.857Z,12.20
2023-05-15T08:43:29.872Z,12.40
2023-05-15T08:45:57.130Z,12.50
2023-05-15T08:48:28.535Z,12.30
2023-05-15T08:50:58.378Z,12.40
2023-05-15T08:53:25.520Z,12.30
2023-05-15T08:55:52.539Z,12.30
2023-05-15T08:58:22.536Z,12.30
2023-05-15T09:00:50.101Z,12.50
2023-05-15T09:03:18.285Z,12.60
2023-05-15T09:05:48.027Z,12.60
2023-05-15T09:08:16.730Z,12.70
2023-05-15T09:10:43.877Z,12.60
2023-05-15T09:13:11.982Z,12.50
2023-05-15T09:15:38.923Z,12.70
2023-05-15T09:18:07.822Z,12.60
2023-05-15T09:20:36.891Z,12.70
2023-05-15T09:23:06.132Z,12.80
2023-05-15T09:25:40.845Z,12.90
2023-05-15T09:28:10.587Z,12.70
2023-05-15T09:30:42.731Z,12.80
2023-05-15T09:33:11.416Z,12.90
2023-05-15T09:35:39.733Z,12.70
2023-05-15T09:38:11.979Z,12.80
2023-05-15T09:40:40.742Z,13.00
2023-05-15T09:43:11.135Z,13.30
2023-05-15T09:45:37.961Z,13.30
2023-05-15T09:48:06.045Z,13.30
2023-05-15T09:50:37.579Z,13.50
2023-05-15T09:53:05.315Z,13.50
2023-05-15T09:55:36.219Z,13.60
2023-05-15T09:58:11.227Z,13.40
2023-05-15T10:00:47.702Z,13.30
2023-05-15T10:03:17.604Z,13.30
2023-05-15T10:05:44.699Z,13.40
2023-05-15T10:08:12.675Z,13.50
2023-05-15T10:10:39.837Z,13.60
2023-05-15T10:13:08.394Z,13.80
2023-05-15T10:15:35.734Z,13.90
2023-05-15T10:18:05.132Z,13.90
2023-05-15T10:20:35.422Z,14.00
2023-05-15T10:23:05.212Z,14.00
2023-05-15T10:25:55.791Z,14.10
2023-05-15T10:28:23.052Z,13.80
2023-05-15T10:30:50.058Z,13.60
2023-05-15T10:33:17.250Z,13.60
2023-05-15T10:35:45.099Z,13.90
2023-05-15T10:38:15.775Z,13.80
2023-05-15T10:40:43.673Z,13.80
2023-05-15T10:43:13.181Z,13.80
2023-05-15T10:45:40.409Z,13.70
2023-05-15T10:48:09.175Z,13.60
2023-05-15T10:50:37.764Z,13.80
2023-05-15T10:53:04.730Z,13.80
2023-05-15T10:55:31.712Z,13.60
2023-05-15T10:57:58.574Z,13.80
2023-05-15T11:00:27.466Z,13.70
2023-05-15T11:02:57.109Z,13.60
2023-05-15T11:05:24.781Z,13.50
2023-05-15T11:08:21.523Z,13.80
2023-05-15T11:10:48.372Z,14.00
2023-05-15T11:13:15.281Z,14.10
2023-05-15T11:15:44.038Z,14.00
2023-05-15T11:18:11.153Z,14.10
2023-05-15T11:20:51.955Z,14.00
2023-05-15T11:23:22.203Z,14.10
2023-05-15T11:25:57.515Z,14.00
2023-05-15T11:28:30.690Z,14.20
2023-05-15T11:31:06.793Z,14.10
2023-05-15T11:33:33.742Z,14.00
2023-05-15T11:36:01.433Z,14.00
2023-05-15T11:38:28.386Z,14.00
2023-05-15T11:41:02.781Z,13.70
2023-05-15T11:43:30.599Z,13.70
2023-05-15T11:45:58.485Z,13.70
2023-05-15T11:48:31.463Z,13.90
2023-05-15T11:50:58.312Z,14.20
2023-05-15T11:53:25.191Z,14.10
2023-05-15T11:55:54.307Z,14.00
2023-05-15T11:58:23.494Z,14.00
2023-05-15T12:00:51.653Z,13.80
2023-05-15T12:03:38.212Z,13.70
2023-05-15T12:06:05.492Z,13.80
2023-05-15T12:08:33.505Z,13.90
2023-05-15T12:11:01.163Z,13.80
2023-05-15T12:13:28.003Z,14.00
2023-05-15T12:15:55.709Z,13.90
2023-05-15T12:18:22.912Z,14.00
2023-05-15T12:20:52.740Z,13.90
2023-05-15T12:23:22.327Z,13.70
2023-05-15T12:25:52.856Z,13.70
2023-05-15T12:28:19.670Z,13.80
2023-05-15T12:30:46.733Z,14.00
2023-05-15T12:33:13.695Z,14.00
2023-05-15T12:35:45.385Z,14.00
2023-05-15T12:38:16.539Z,14.00
2023-05-15T12:40:45.318Z,14.00
2023-05-15T12:43:14.038Z,13.90
2023-05-15T12:45:43.135Z,13.90
2023-05-15T12:48:15.478Z,13.70
2023-05-15T12:50:45.066Z,13.60
2023-05-15T12:53:16.934Z,13.50
2023-05-15T12:55:47.215Z,13.40
2023-05-15T12:58:18.602Z,13.40
2023-05-15T13:00:50.178Z,13.20
2023-05-15T13:03:24.060Z,13.30
2023-05-15T13:05:52.420Z,13.10
2023-05-15T13:08:19.683Z,12.90
2023-05-15T13:10:47.781Z,12.80
2023-05-15T13:13:15.569Z,12.90
2023-05-15T13:15:45.943Z,12.80
2023-05-15T13:18:15.116Z,12.70
2023-05-15T13:20:51.787Z,12.60
2023-05-15T13:23:20.114Z,12.50
2023-05-15T13:25:47.568Z,12.40
2023-05-15T13:28:14.421Z,12.30
2023-05-15T13:30:42.226Z,12.20
2023-05-15T13:33:10.737Z,12.10
2023-05-15T13:35:38.346Z,12.00
2023-05-15T13:38:05.098Z,12.00
2023-05-15T13:40:38.105Z,11.90
2023-05-15T13:43:06.659Z,12.00
2023-05-15T13:45:33.808Z,12.30
2023-05-15T13:48:00.689Z,12.20
2023-05-15T13:50:27.747Z,12.30
2023-05-15T13:52:54.729Z,12.10
2023-05-15T13:55:23.183Z,11.80
2023-05-15T13:57:50.179Z,11.80
2023-05-15T14:00:17.426Z,11.80
2023-05-15T14:02:44.859Z,11.90
2023-05-15T14:05:13.554Z,12.00
2023-05-15T14:07:41.222Z,11.90
2023-05-15T14:10:08.816Z,11.80
2023-05-15T14:12:36.700Z,11.70
2023-05-15T14:15:04.065Z,11.70
2023-05-15T14:17:30.845Z,11.60
2023-05-15T14:19:57.651Z,11.80
2023-05-15T14:22:25.035Z,11.80
2023-05-15T14:24:53.145Z,11.60
2023-05-15T14:27:20.039Z,11.40
2023-05-15T14:29:48.477Z,11.50
2023-05-15T14:32:16.287Z,11.50
2023-05-15T14:34:43.269Z,11.40
2023-05-15T14:37:10.217Z,11.40
2023-05-15T14:39:37.166Z,11.60
2023-05-15T14:42:04.222Z,11.40
2023-05-15T14:44:30.997Z,11.30
2023-05-15T14:47:16.277Z,11.10
2023-05-15T14:49:43.090Z,11.20
2023-05-15T14:52:10.791Z,11.10
2023-05-15T14:54:39.612Z,11.00
2023-05-15T14:57:07.482Z,11.10
2023-05-15T14:59:34.228Z,11.20
2023-05-15T15:02:01.100Z,11.00
2023-05-15T15:04:30.445Z,10.80
2023-05-15T15:06:57.393Z,10.80
2023-05-15T15:09:26.371Z,10.90
2023-05-15T15:11:54.450Z,11.00
2023-05-15T15:14:21.247Z,11.10
2023-05-15T15:16:48.110Z,11.20
2023-05-15T15:19:16.706Z,11.30
2023-05-15T15:21:45.175Z,11.30
2023-05-15T15:24:12.031Z,11.40
2023-05-15T15:26:38.835Z,11.50
2023-05-15T15:29:05.828Z,11.60
2023-05-15T15:31:32.807Z,11.60
2023-05-15T15:33:59.705Z,11.70
2023-05-15T15:36:26.604Z,11.60
2023-05-15T15:38:53.487Z,11.40
2023-05-15T15:41:21.644Z,11.30
2023-05-15T15:43:48.542Z,11.20
2023-05-15T15:46:15.571Z,11.20
2023-05-15T15:48:42.337Z,11.30
2023-05-15T15:51:09.226Z,11.30
2023-05-15T15:53:36.450Z,11.30
2023-05-15T15:56:03.191Z,11.40
2023-05-15T15:58:30.435Z,11.40
2023-05-15T16:00:57.830Z,11.30
2023-05-15T16:03:24.947Z,11.40
2023-05-15T16:05:51.975Z,11.30
2023-05-15T16:08:18.835Z,11.20
2023-05-15T16:10:45.705Z,11.20
2023-05-15T16:13:12.564Z,11.40
2023-05-15T16:15:39.325Z,11.40
2023-05-15T16:18:06.200Z,11.30
2023-05-15T16:20:35.078Z,11.30
2023-05-15T16:23:02.351Z,11.40
2023-05-15T16:25:29.182Z,11.40
2023-05-15T16:27:55.898Z,11.50
2023-05-15T16:30:26.336Z,11.40
2023-05-15T16:32:57.521Z,11.40
2023-05-15T16:35:24.376Z,11.40
2023-05-15T16:37:51.300Z,11.40
2023-05-15T16:40:18.090Z,11.20
2023-05-15T16:42:44.920Z,11.30
2023-05-15T16:45:11.889Z,11.40
2023-05-15T16:47:41.658Z,11.50
2023-05-15T16:50:08.960Z,11.50
2023-05-15T16:52:35.985Z,11.40
2023-05-15T16:55:03.402Z,11.30
2023-05-15T16:57:30.384Z,11.30
2023-05-15T16:59:57.191Z,11.40
2023-05-15T17:02:24.086Z,11.20
2023-05-15T17:04:51.368Z,11.10
2023-05-15T17:07:18.084Z,11.00
2023-05-15T17:09:44.856Z,11.00
2023-05-15T17:12:11.802Z,11.10
2023-05-15T17:14:38.610Z,11.10
2023-05-15T17:17:05.385Z,11.10
2023-05-15T17:19:35.461Z,11.00
2023-05-15T17:22:02.352Z,10.90
2023-05-15T17:24:42.305Z,10.90
2023-05-15T17:27:16.036Z,10.90
2023-05-15T17:29:43.175Z,10.90
2023-05-15T17:32:10.174Z,10.90
2023-05-15T17:34:37.229Z,11.00
2023-05-15T17:37:04.423Z,11.00
2023-05-15T17:39:31.180Z,10.90
2023-05-15T17:41:58.005Z,10.90
2023-05-15T17:44:29.767Z,10.80
2023-05-15T17:46:57.233Z,10.70
2023-05-15T17:49:24.190Z,10.80
2023-05-15T17:51:51.045Z,10.70
2023-05-15T17:54:17.934Z,10.70
2023-05-15T17:56:45.038Z,10.80
2023-05-15T17:59:12.034Z,10.90
2023-05-15T18:01:38.788Z,11.00
2023-05-15T18:04:05.821Z,11.10
2023-05-15T18:06:34.273Z,10.90
2023-05-15T18:09:01.344Z,10.90
2023-05-15T18:11:28.263Z,10.90
2023-05-15T18:13:55.083Z,11.00
2023-05-15T18:16:21.934Z,11.00
2023-05-15T18:18:49.460Z,10.90
2023-05-15T18:21:16.861Z,10.80
2023-05-15T18:23:43.648Z,10.70
2023-05-15T18:26:10.753Z,10.60
2023-05-15T18:28:37.489Z,10.60
2023-05-15T18:31:04.344Z,10.70
2023-05-15T18:33:31.164Z,10.60
2023-05-15T18:35:57.899Z,10.60
2023-05-15T18:38:24.764Z,10.50
2023-05-15T18:40:52.171Z,10.50
2023-05-15T18:43:18.984Z,10.30
2023-05-15T18:45:46.336Z,10.30
2023-05-15T18:48:13.080Z,10.30
2023-05-15T18:50:39.845Z,10.30
2023-05-15T18:53:07.115Z,10.30
2023-05-15T18:55:33.883Z,10.40
2023-05-15T18:58:00.640Z,10.40
2023-05-15T19:00:43.540Z,10.50
2023-05-15T19:03:10.710Z,10.30
2023-05-15T19:05:37.627Z,10.30
2023-05-15T19:08:04.597Z,10.20
2023-05-15T19:10:31.441Z,10.40
2023-05-15T19:12:58.545Z,10.50
2023-05-15T19:15:25.555Z,10.30
2023-05-15T19:17:52.827Z,10.30
2023-05-15T19:20:20.072Z,10.20
2023-05-15T19:22:46.836Z,10.30
2023-05-15T19:25:13.696Z,10.30
2023-05-15T19:27:40.619Z,10.50
2023-05-15T19:30:08.486Z,10.50
2023-05-15T19:32:35.628Z,10.40
2023-05-15T19:35:02.603Z,10.30
2023-05-15T19:37:29.326Z,10.30
2023-05-15T19:39:56.836Z,10.30
2023-05-15T19:42:23.665Z,10.40
2023-05-15T19:44:50.381Z,10.40
2023-05-15T19:47:17.107Z,10.50
2023-05-15T19:49:43.917Z,10.50
2023-05-15T19:52:10.716Z,10.30
2023-05-15T19:54:37.504Z,10.40
2023-05-15T19:57:04.392Z,10.30
2023-05-15T19:59:31.109Z,10.20
2023-05-15T20:01:57.969Z,10.30
2023-05-15T20:04:26.038Z,10.40
2023-05-15T20:06:53.222Z,10.50
2023-05-15T20:09:20.041Z,10.40
2023-05-15T20:11:46.773Z,10.50
2023-05-15T20:14:14.532Z,10.40
2023-05-15T20:16:41.474Z,10.50
2023-05-15T20:19:08.414Z,10.50
2023-05-15T20:21:35.133Z,10.40
2023-05-15T20:24:01.911Z,10.30
2023-05-15T20:26:28.641Z,10.40
2023-05-15T20:28:55.530Z,10.40
2023-05-15T20:31:22.349Z,10.50
2023-05-15T20:33:49.116Z,10.50
2023-05-15T20:36:16.768Z,10.60
2023-05-15T20:38:45.067Z,10.70
2023-05-15T20:41:11.847Z,10.60
2023-05-15T20:43:39.167Z,10.50
2023-05-15T20:46:09.009Z,10.40
2023-05-15T20:48:36.385Z,10.40
2023-05-15T20:51:03.305Z,10.30
2023-05-15T20:53:30.119Z,10.50
2023-05-15T20:55:56.907Z,10.50
2023-05-15T20:58:23.657Z,10.50
2023-05-15T21:00:50.665Z,10.30
2023-05-15T21:03:17.617Z,10.30
2023-05-15T21:05:44.796Z,10.20
2023-05-15T21:08:11.718Z,10.30
2023-05-15T21:10:38.626Z,10.50
2023-05-15T21:13:05.444Z,10.50
2023-05-15T21:15:32.208Z,10.30
2023-05-15T21:17:59.072Z,10.20
2023-05-15T21:20:27.144Z,10.30
2023-05-15T21:22:54.080Z,10.30
2023-05-15T21:25:20.846Z,10.30
2023-05-15T21:27:47.614Z,10.20
2023-05-15T21:30:14.793Z,10.20
2023-05-15T21:32:41.783Z,10.00
2023-05-15T21:35:09.823Z,10.00
2023-05-15T21:37:36.906Z,9.90
2023-05-15T21:40:04.568Z,9.90
2023-05-15T21:42:32.051Z,10.00
2023-05-15T21:44:59.336Z,10.00
2023-05-15T21:47:26.121Z,10.00
2023-05-15T21:49:52.907Z,10.30
2023-05-15T21:52:19.714Z,10.20
2023-05-15T21:54:46.488Z,10.20
2023-05-15T21:57:13.237Z,10.30
2023-05-15T21:59:40.129Z,10.20
2023-05-15T22:02:07.549Z,10.20
2023-05-15T22:04:34.619Z,10.10
2023-05-15T22:07:01.541Z,10.10
2023-05-15T22:09:28.334Z,10.20
2023-05-15T22:11:55.098Z,10.10
2023-05-15T22:14:21.952Z,10.20
2023-05-15T22:16:48.800Z,10.30
2023-05-15T22:19:28.896Z,10.20
2023-05-15T22:21:59.404Z,10.30
2023-05-15T22:24:26.345Z,10.30
2023-05-15T22:26:53.061Z,10.20
2023-05-15T22:29:19.793Z,10.30
2023-05-15T22:31:46.630Z,10.20
2023-05-15T22:34:13.747Z,10.10
2023-05-15T22:36:41.139Z,10.20
2023-05-15T22:39:08.159Z,10.20
2023-05-15T22:41:34.925Z,10.40
2023-05-15T22:44:02.638Z,10.30
2023-05-15T22:46:29.544Z,10.30
2023-05-15T22:48:59.359Z,10.30
2023-05-15T22:51:27.010Z,10.30
2023-05-15T22:54:50.290Z,10.20
2023-05-15T22:57:17.089Z,10.00
2023-05-15T22:59:44.467Z,10.10
2023-05-15T23:02:11.241Z,10.00
2023-05-15T23:04:38.171Z,10.00
2023-05-15T23:07:05.231Z,10.10
2023-05-15T23:09:32.015Z,10.10
2023-05-15T23:11:58.754Z,10.10
2023-05-15T23:14:25.809Z,10.10
2023-05-15T23:16:52.602Z,10.10
2023-05-15T23:19:19.516Z,10.20
2023-05-15T23:21:46.515Z,10.10
2023-05-15T23:24:13.247Z,10.10
2023-05-15T23:26:39.990Z,10.10
2023-05-15T23:29:06.756Z,10.20
2023-05-15T23:31:33.706Z,10.20
2023-05-15T23:34:00.658Z,10.10
2023-05-15T23:36:27.519Z,9.90
2023-05-15T23:38:54.410Z,9.60
2023-05-15T23:41:22.821Z,9.70
2023-05-15T23:43:52.602Z,9.80
2023-05-15T23:46:19.591Z,9.70
2023-05-15T23:48:46.427Z,9.80
2023-05-15T23:51:13.165Z,9.90
2023-05-15T23:53:39.880Z,9.50
2023-05-15T23:56:07.145Z,9.40
2023-05-15T23:58:33.986Z,9.40
